sensor_id;sensor_type;location;lat;lon;timestamp;P1;durP1;ratioP1;P2;durP2;ratioP2
23754;SDS011;12057;52.042;6.830;2022-10-15T00:00:51;73.88;;;27.17;;
23754;SDS011;12057;52.042;6.830;2022-10-15T00:05:52;81.00;;;26.90;;
23754;SDS011;12057;52.042;6.830;2022-10-15T00:10:52;75.20;;;25.00;;
23754;SDS011;12057;52.042;6.830;2022-10-15T00:15:53;81.47;;;26.80;;
23754;SDS011;12057;52.042;6.830;2022-10-15T00:20:54;98.73;;;28.33;;
23754;SDS011;12057;52.042;6.830;2022-10-15T00:26:05;97.93;;;31.13;;
23754;SDS011;12057;52.042;6.830;2022-10-15T00:31:09;86.05;;;27.58;;
23754;SDS011;12057;52.042;6.830;2022-10-15T00:36:15;78.70;;;27.90;;
23754;SDS011;12057;52.042;6.830;2022-10-15T00:41:28;107.88;;;31.05;;
23754;SDS011;12057;52.042;6.830;2022-10-15T00:46:34;101.90;;;28.98;;
23754;SDS011;12057;52.042;6.830;2022-10-15T00:51:39;121.00;;;28.88;;
23754;SDS011;12057;52.042;6.830;2022-10-15T00:56:44;109.85;;;28.13;;
23754;SDS011;12057;52.042;6.830;2022-10-15T01:01:45;96.70;;;27.40;;
23754;SDS011;12057;52.042;6.830;2022-10-15T01:06:46;71.20;;;23.83;;
23754;SDS011;12057;52.042;6.830;2022-10-15T01:11:48;61.33;;;23.00;;
23754;SDS011;12057;52.042;6.830;2022-10-15T01:16:59;79.57;;;23.02;;
23754;SDS011;12057;52.042;6.830;2022-10-15T01:27:24;238.90;;;30.93;;
23754;SDS011;12057;52.042;6.830;2022-10-15T01:38:04;89.25;;;24.92;;
23754;SDS011;12057;52.042;6.830;2022-10-15T01:43:32;98.05;;;26.90;;
23754;SDS011;12057;52.042;6.830;2022-10-15T01:48:37;105.13;;;27.40;;
23754;SDS011;12057;52.042;6.830;2022-10-15T01:58:41;320.15;;;31.85;;
23754;SDS011;12057;52.042;6.830;2022-10-15T02:09:00;101.35;;;27.48;;
23754;SDS011;12057;52.042;6.830;2022-10-15T02:14:14;89.88;;;27.25;;
23754;SDS011;12057;52.042;6.830;2022-10-15T02:19:43;122.05;;;26.42;;
23754;SDS011;12057;52.042;6.830;2022-10-15T02:24:54;87.47;;;26.00;;
23754;SDS011;12057;52.042;6.830;2022-10-15T02:29:57;104.88;;;27.50;;
23754;SDS011;12057;52.042;6.830;2022-10-15T02:35:01;79.38;;;25.67;;
23754;SDS011;12057;52.042;6.830;2022-10-15T02:40:03;76.28;;;26.13;;
23754;SDS011;12057;52.042;6.830;2022-10-15T02:45:04;79.97;;;26.60;;
23754;SDS011;12057;52.042;6.830;2022-10-15T02:50:05;91.00;;;27.20;;
23754;SDS011;12057;52.042;6.830;2022-10-15T02:55:09;75.03;;;25.98;;
23754;SDS011;12057;52.042;6.830;2022-10-15T03:00:10;100.00;;;28.13;;
23754;SDS011;12057;52.042;6.830;2022-10-15T03:05:11;85.55;;;27.35;;
23754;SDS011;12057;52.042;6.830;2022-10-15T03:10:12;97.38;;;29.70;;
23754;SDS011;12057;52.042;6.830;2022-10-15T03:15:13;86.90;;;27.87;;
23754;SDS011;12057;52.042;6.830;2022-10-15T03:20:13;92.00;;;29.27;;
23754;SDS011;12057;52.042;6.830;2022-10-15T03:25:14;87.93;;;29.10;;
23754;SDS011;12057;52.042;6.830;2022-10-15T03:30:15;93.97;;;31.67;;
23754;SDS011;12057;52.042;6.830;2022-10-15T03:35:15;96.77;;;29.70;;
23754;SDS011;12057;52.042;6.830;2022-10-15T03:40:16;96.83;;;34.67;;
23754;SDS011;12057;52.042;6.830;2022-10-15T03:45:18;102.17;;;33.77;;
23754;SDS011;12057;52.042;6.830;2022-10-15T03:50:19;103.70;;;34.22;;
23754;SDS011;12057;52.042;6.830;2022-10-15T03:55:19;97.07;;;32.30;;
23754;SDS011;12057;52.042;6.830;2022-10-15T04:00:20;89.50;;;31.33;;
23754;SDS011;12057;52.042;6.830;2022-10-15T04:05:21;117.50;;;34.97;;
23754;SDS011;12057;52.042;6.830;2022-10-15T04:10:21;110.43;;;35.20;;
23754;SDS011;12057;52.042;6.830;2022-10-15T04:15:22;100.87;;;36.63;;
23754;SDS011;12057;52.042;6.830;2022-10-15T04:20:23;119.37;;;37.70;;
23754;SDS011;12057;52.042;6.830;2022-10-15T04:25:23;109.97;;;35.87;;
23754;SDS011;12057;52.042;6.830;2022-10-15T04:30:24;112.87;;;35.83;;
23754;SDS011;12057;52.042;6.830;2022-10-15T04:35:25;119.87;;;37.77;;
23754;SDS011;12057;52.042;6.830;2022-10-15T04:40:26;115.23;;;35.90;;
23754;SDS011;12057;52.042;6.830;2022-10-15T04:45:27;112.40;;;35.00;;
23754;SDS011;12057;52.042;6.830;2022-10-15T04:50:27;129.43;;;36.33;;
23754;SDS011;12057;52.042;6.830;2022-10-15T04:55:31;111.13;;;36.37;;
23754;SDS011;12057;52.042;6.830;2022-10-15T05:00:32;114.53;;;36.40;;
23754;SDS011;12057;52.042;6.830;2022-10-15T05:05:32;119.10;;;37.30;;
23754;SDS011;12057;52.042;6.830;2022-10-15T05:10:33;135.07;;;37.77;;
23754;SDS011;12057;52.042;6.830;2022-10-15T05:15:34;121.90;;;40.23;;
23754;SDS011;12057;52.042;6.830;2022-10-15T05:20:35;132.23;;;39.37;;
23754;SDS011;12057;52.042;6.830;2022-10-15T05:25:35;125.50;;;38.23;;
23754;SDS011;12057;52.042;6.830;2022-10-15T05:30:36;127.33;;;41.03;;
23754;SDS011;12057;52.042;6.830;2022-10-15T05:35:37;134.57;;;41.57;;
23754;SDS011;12057;52.042;6.830;2022-10-15T05:40:38;132.77;;;40.90;;
23754;SDS011;12057;52.042;6.830;2022-10-15T05:45:39;146.27;;;44.20;;
23754;SDS011;12057;52.042;6.830;2022-10-15T05:50:39;132.03;;;41.33;;
23754;SDS011;12057;52.042;6.830;2022-10-15T05:55:40;131.90;;;43.63;;
23754;SDS011;12057;52.042;6.830;2022-10-15T06:00:41;150.53;;;44.40;;
23754;SDS011;12057;52.042;6.830;2022-10-15T06:05:42;139.03;;;43.60;;
23754;SDS011;12057;52.042;6.830;2022-10-15T06:10:46;133.40;;;44.77;;
23754;SDS011;12057;52.042;6.830;2022-10-15T06:15:49;130.98;;;44.17;;
23754;SDS011;12057;52.042;6.830;2022-10-15T06:20:51;144.07;;;47.23;;
23754;SDS011;12057;52.042;6.830;2022-10-15T06:25:52;133.68;;;43.80;;
23754;SDS011;12057;52.042;6.830;2022-10-15T06:30:53;142.20;;;45.27;;
23754;SDS011;12057;52.042;6.830;2022-10-15T06:35:53;138.87;;;44.03;;
23754;SDS011;12057;52.042;6.830;2022-10-15T06:40:55;168.32;;;49.22;;
23754;SDS011;12057;52.042;6.830;2022-10-15T06:45:56;141.77;;;48.67;;
23754;SDS011;12057;52.042;6.830;2022-10-15T06:50:58;157.77;;;50.08;;
23754;SDS011;12057;52.042;6.830;2022-10-15T06:56:01;156.10;;;50.47;;
23754;SDS011;12057;52.042;6.830;2022-10-15T07:01:04;154.35;;;51.67;;
23754;SDS011;12057;52.042;6.830;2022-10-15T07:06:06;150.20;;;51.28;;
23754;SDS011;12057;52.042;6.830;2022-10-15T07:11:08;187.25;;;54.47;;
23754;SDS011;12057;52.042;6.830;2022-10-15T07:16:09;167.80;;;52.17;;
23754;SDS011;12057;52.042;6.830;2022-10-15T07:21:11;164.93;;;51.88;;
23754;SDS011;12057;52.042;6.830;2022-10-15T07:26:11;166.93;;;52.97;;
23754;SDS011;12057;52.042;6.830;2022-10-15T07:31:12;152.03;;;49.77;;
23754;SDS011;12057;52.042;6.830;2022-10-15T07:36:13;189.47;;;53.57;;
23754;SDS011;12057;52.042;6.830;2022-10-15T07:41:14;138.10;;;49.10;;
23754;SDS011;12057;52.042;6.830;2022-10-15T07:46:15;152.70;;;51.37;;
23754;SDS011;12057;52.042;6.830;2022-10-15T07:51:15;146.30;;;45.87;;
23754;SDS011;12057;52.042;6.830;2022-10-15T07:56:16;154.77;;;49.83;;
23754;SDS011;12057;52.042;6.830;2022-10-15T08:06:19;132.53;;;45.20;;
23754;SDS011;12057;52.042;6.830;2022-10-15T08:11:20;127.67;;;46.53;;
23754;SDS011;12057;52.042;6.830;2022-10-15T08:16:21;147.13;;;45.43;;
23754;SDS011;12057;52.042;6.830;2022-10-15T08:21:21;123.23;;;45.63;;
23754;SDS011;12057;52.042;6.830;2022-10-15T08:26:22;104.87;;;38.30;;
23754;SDS011;12057;52.042;6.830;2022-10-15T08:31:25;112.30;;;39.15;;
23754;SDS011;12057;52.042;6.830;2022-10-15T08:36:26;101.97;;;36.23;;
23754;SDS011;12057;52.042;6.830;2022-10-15T08:46:41;96.47;;;36.85;;
23754;SDS011;12057;52.042;6.830;2022-10-15T08:51:46;100.13;;;34.80;;
23754;SDS011;12057;52.042;6.830;2022-10-15T08:56:53;112.75;;;44.25;;
23754;SDS011;12057;52.042;6.830;2022-10-15T09:07:30;97.40;;;34.38;;
23754;SDS011;12057;52.042;6.830;2022-10-15T09:17:59;107.78;;;35.13;;
23754;SDS011;12057;52.042;6.830;2022-10-15T09:22:59;104.67;;;36.37;;
23754;SDS011;12057;52.042;6.830;2022-10-15T09:28:05;92.47;;;35.22;;
23754;SDS011;12057;52.042;6.830;2022-10-15T09:43:33;73.95;;;32.10;;
23754;SDS011;12057;52.042;6.830;2022-10-15T09:48:39;66.22;;;29.38;;
23754;SDS011;12057;52.042;6.830;2022-10-15T09:59:14;65.93;;;31.98;;
23754;SDS011;12057;52.042;6.830;2022-10-15T10:04:18;54.47;;;26.13;;
23754;SDS011;12057;52.042;6.830;2022-10-15T10:09:32;65.10;;;26.70;;
23754;SDS011;12057;52.042;6.830;2022-10-15T10:14:58;54.10;;;24.90;;
23754;SDS011;12057;52.042;6.830;2022-10-15T10:35:49;49.65;;;20.80;;
23754;SDS011;12057;52.042;6.830;2022-10-15T10:56:15;25.37;;;12.33;;
23754;SDS011;12057;52.042;6.830;2022-10-15T11:01:20;22.88;;;11.50;;
23754;SDS011;12057;52.042;6.830;2022-10-15T11:32:52;13.65;;;8.20;;
23754;SDS011;12057;52.042;6.830;2022-10-15T11:38:33;12.20;;;5.90;;
23754;SDS011;12057;52.042;6.830;2022-10-15T11:59:46;10.25;;;5.85;;
23754;SDS011;12057;52.042;6.830;2022-10-15T12:04:50;12.15;;;4.82;;
23754;SDS011;12057;52.042;6.830;2022-10-15T12:09:59;7.82;;;5.50;;
23754;SDS011;12057;52.042;6.830;2022-10-15T12:15:26;7.28;;;5.22;;
23754;SDS011;12057;52.042;6.830;2022-10-15T12:20:41;6.13;;;4.88;;
23754;SDS011;12057;52.042;6.830;2022-10-15T12:25:43;9.02;;;5.15;;
23754;SDS011;12057;52.042;6.830;2022-10-15T12:30:55;7.97;;;6.65;;
23754;SDS011;12057;52.042;6.830;2022-10-15T12:36:23;11.02;;;8.85;;
23754;SDS011;12057;52.042;6.830;2022-10-15T12:41:38;16.20;;;9.13;;
23754;SDS011;12057;52.042;6.830;2022-10-15T12:46:41;17.15;;;11.70;;
23754;SDS011;12057;52.042;6.830;2022-10-15T12:51:42;14.90;;;10.97;;
23754;SDS011;12057;52.042;6.830;2022-10-15T12:56:43;18.17;;;10.93;;
23754;SDS011;12057;52.042;6.830;2022-10-15T13:06:44;28.13;;;11.73;;
23754;SDS011;12057;52.042;6.830;2022-10-15T13:11:47;24.30;;;9.45;;
23754;SDS011;12057;52.042;6.830;2022-10-15T13:16:49;21.30;;;8.73;;
23754;SDS011;12057;52.042;6.830;2022-10-15T13:21:51;17.80;;;9.87;;
23754;SDS011;12057;52.042;6.830;2022-10-15T13:26:54;10.98;;;6.30;;
23754;SDS011;12057;52.042;6.830;2022-10-15T13:31:56;11.38;;;6.80;;
23754;SDS011;12057;52.042;6.830;2022-10-15T13:36:57;8.70;;;5.77;;
23754;SDS011;12057;52.042;6.830;2022-10-15T13:42:13;14.75;;;6.82;;
23754;SDS011;12057;52.042;6.830;2022-10-15T13:47:35;13.80;;;7.10;;
23754;SDS011;12057;52.042;6.830;2022-10-15T13:52:40;9.15;;;5.75;;
23754;SDS011;12057;52.042;6.830;2022-10-15T13:57:44;12.80;;;4.90;;
23754;SDS011;12057;52.042;6.830;2022-10-15T14:03:28;9.23;;;4.68;;
23754;SDS011;12057;52.042;6.830;2022-10-15T14:19:26;3.33;;;2.40;;
23754;SDS011;12057;52.042;6.830;2022-10-15T14:24:38;22.27;;;10.48;;
23754;SDS011;12057;52.042;6.830;2022-10-15T14:29:49;4.78;;;2.60;;
23754;SDS011;12057;52.042;6.830;2022-10-15T14:34:57;8.43;;;3.10;;
23754;SDS011;12057;52.042;6.830;2022-10-15T14:50:17;7.10;;;4.45;;
23754;SDS011;12057;52.042;6.830;2022-10-15T15:00:31;4.10;;;3.17;;
23754;SDS011;12057;52.042;6.830;2022-10-15T15:05:43;7.30;;;3.97;;
23754;SDS011;12057;52.042;6.830;2022-10-15T15:10:46;8.30;;;5.03;;
23754;SDS011;12057;52.042;6.830;2022-10-15T15:15:47;6.55;;;3.80;;
23754;SDS011;12057;52.042;6.830;2022-10-15T15:20:49;6.68;;;4.28;;
23754;SDS011;12057;52.042;6.830;2022-10-15T15:30:55;13.82;;;4.18;;
23754;SDS011;12057;52.042;6.830;2022-10-15T15:36:02;7.93;;;4.53;;
23754;SDS011;12057;52.042;6.830;2022-10-15T15:41:11;8.32;;;3.08;;
23754;SDS011;12057;52.042;6.830;2022-10-15T15:46:14;7.47;;;3.92;;
23754;SDS011;12057;52.042;6.830;2022-10-15T15:56:21;5.93;;;3.28;;
23754;SDS011;12057;52.042;6.830;2022-10-15T16:01:22;9.93;;;4.10;;
23754;SDS011;12057;52.042;6.830;2022-10-15T16:06:23;10.37;;;3.67;;
23754;SDS011;12057;52.042;6.830;2022-10-15T16:11:23;9.17;;;3.13;;
23754;SDS011;12057;52.042;6.830;2022-10-15T16:16:24;6.63;;;2.43;;
23754;SDS011;12057;52.042;6.830;2022-10-15T16:21:25;10.10;;;2.70;;
23754;SDS011;12057;52.042;6.830;2022-10-15T16:26:26;7.57;;;3.00;;
23754;SDS011;12057;52.042;6.830;2022-10-15T16:31:27;6.67;;;2.80;;
23754;SDS011;12057;52.042;6.830;2022-10-15T16:36:30;8.63;;;3.33;;
23754;SDS011;12057;52.042;6.830;2022-10-15T16:41:31;5.60;;;3.20;;
23754;SDS011;12057;52.042;6.830;2022-10-15T16:46:32;7.50;;;3.07;;
23754;SDS011;12057;52.042;6.830;2022-10-15T16:51:33;6.43;;;3.20;;
23754;SDS011;12057;52.042;6.830;2022-10-15T16:56:33;8.93;;;4.53;;
23754;SDS011;12057;52.042;6.830;2022-10-15T17:01:34;13.73;;;4.13;;
23754;SDS011;12057;52.042;6.830;2022-10-15T17:06:35;7.05;;;4.18;;
23754;SDS011;12057;52.042;6.830;2022-10-15T17:11:37;5.73;;;3.83;;
23754;SDS011;12057;52.042;6.830;2022-10-15T17:16:44;12.15;;;5.40;;
23754;SDS011;12057;52.042;6.830;2022-10-15T17:21:49;9.63;;;4.20;;
23754;SDS011;12057;52.042;6.830;2022-10-15T17:26:51;13.70;;;4.20;;
23754;SDS011;12057;52.042;6.830;2022-10-15T17:31:53;7.82;;;4.25;;
23754;SDS011;12057;52.042;6.830;2022-10-15T17:36:54;7.50;;;4.07;;
23754;SDS011;12057;52.042;6.830;2022-10-15T17:41:55;7.00;;;4.20;;
23754;SDS011;12057;52.042;6.830;2022-10-15T17:46:55;15.70;;;4.03;;
23754;SDS011;12057;52.042;6.830;2022-10-15T17:51:56;6.37;;;3.63;;
23754;SDS011;12057;52.042;6.830;2022-10-15T17:56:57;11.53;;;3.60;;
23754;SDS011;12057;52.042;6.830;2022-10-15T18:01:58;11.70;;;4.67;;
23754;SDS011;12057;52.042;6.830;2022-10-15T18:06:59;21.70;;;7.18;;
23754;SDS011;12057;52.042;6.830;2022-10-15T18:12:00;16.27;;;6.57;;
23754;SDS011;12057;52.042;6.830;2022-10-15T18:17:01;15.13;;;5.83;;
23754;SDS011;12057;52.042;6.830;2022-10-15T18:22:02;13.65;;;5.55;;
23754;SDS011;12057;52.042;6.830;2022-10-15T18:27:03;19.03;;;5.10;;
23754;SDS011;12057;52.042;6.830;2022-10-15T18:32:03;12.23;;;4.47;;
23754;SDS011;12057;52.042;6.830;2022-10-15T18:37:04;11.90;;;5.37;;
23754;SDS011;12057;52.042;6.830;2022-10-15T18:42:05;16.67;;;5.37;;
23754;SDS011;12057;52.042;6.830;2022-10-15T18:47:06;15.53;;;5.73;;
23754;SDS011;12057;52.042;6.830;2022-10-15T18:52:06;25.50;;;11.17;;
23754;SDS011;12057;52.042;6.830;2022-10-15T18:57:07;19.60;;;5.90;;
23754;SDS011;12057;52.042;6.830;2022-10-15T19:02:08;9.13;;;4.70;;
23754;SDS011;12057;52.042;6.830;2022-10-15T19:07:09;11.67;;;4.23;;
23754;SDS011;12057;52.042;6.830;2022-10-15T19:12:10;12.23;;;3.77;;
23754;SDS011;12057;52.042;6.830;2022-10-15T19:17:11;18.77;;;4.03;;
23754;SDS011;12057;52.042;6.830;2022-10-15T19:22:12;18.15;;;5.97;;
23754;SDS011;12057;52.042;6.830;2022-10-15T19:27:13;22.43;;;6.23;;
23754;SDS011;12057;52.042;6.830;2022-10-15T19:32:13;19.63;;;7.57;;
23754;SDS011;12057;52.042;6.830;2022-10-15T19:37:14;20.13;;;7.30;;
23754;SDS011;12057;52.042;6.830;2022-10-15T19:42:15;38.10;;;14.07;;
23754;SDS011;12057;52.042;6.830;2022-10-15T19:47:16;37.60;;;12.90;;
23754;SDS011;12057;52.042;6.830;2022-10-15T19:52:19;17.73;;;7.43;;
23754;SDS011;12057;52.042;6.830;2022-10-15T19:57:20;16.03;;;5.60;;
23754;SDS011;12057;52.042;6.830;2022-10-15T20:02:21;6.90;;;3.97;;
23754;SDS011;12057;52.042;6.830;2022-10-15T20:07:22;8.33;;;3.87;;
23754;SDS011;12057;52.042;6.830;2022-10-15T20:12:22;9.90;;;3.83;;
23754;SDS011;12057;52.042;6.830;2022-10-15T20:17:23;7.90;;;3.20;;
23754;SDS011;12057;52.042;6.830;2022-10-15T20:22:24;5.97;;;2.63;;
23754;SDS011;12057;52.042;6.830;2022-10-15T20:27:24;10.07;;;3.23;;
23754;SDS011;12057;52.042;6.830;2022-10-15T20:32:25;5.53;;;2.63;;
23754;SDS011;12057;52.042;6.830;2022-10-15T20:37:26;8.33;;;3.40;;
23754;SDS011;12057;52.042;6.830;2022-10-15T20:42:26;8.67;;;2.70;;
23754;SDS011;12057;52.042;6.830;2022-10-15T20:47:27;9.47;;;4.17;;
23754;SDS011;12057;52.042;6.830;2022-10-15T20:52:31;13.87;;;2.83;;
23754;SDS011;12057;52.042;6.830;2022-10-15T20:57:33;9.13;;;3.78;;
23754;SDS011;12057;52.042;6.830;2022-10-15T21:02:34;11.30;;;3.30;;
23754;SDS011;12057;52.042;6.830;2022-10-15T21:07:38;19.47;;;3.73;;
23754;SDS011;12057;52.042;6.830;2022-10-15T21:12:38;11.05;;;2.90;;
23754;SDS011;12057;52.042;6.830;2022-10-15T21:17:39;7.47;;;3.57;;
23754;SDS011;12057;52.042;6.830;2022-10-15T21:22:40;12.25;;;3.25;;
23754;SDS011;12057;52.042;6.830;2022-10-15T21:27:44;11.30;;;3.93;;
23754;SDS011;12057;52.042;6.830;2022-10-15T21:32:45;9.02;;;3.40;;
23754;SDS011;12057;52.042;6.830;2022-10-15T21:37:46;11.03;;;3.50;;
23754;SDS011;12057;52.042;6.830;2022-10-15T21:42:46;15.07;;;3.43;;
23754;SDS011;12057;52.042;6.830;2022-10-15T21:47:47;6.77;;;3.17;;
23754;SDS011;12057;52.042;6.830;2022-10-15T21:52:48;16.30;;;3.63;;
23754;SDS011;12057;52.042;6.830;2022-10-15T21:57:48;8.37;;;3.40;;
23754;SDS011;12057;52.042;6.830;2022-10-15T22:02:50;13.90;;;3.45;;
23754;SDS011;12057;52.042;6.830;2022-10-15T22:07:50;15.60;;;3.50;;
23754;SDS011;12057;52.042;6.830;2022-10-15T22:12:51;17.73;;;3.37;;
23754;SDS011;12057;52.042;6.830;2022-10-15T22:17:52;23.37;;;3.40;;
23754;SDS011;12057;52.042;6.830;2022-10-15T22:22:53;15.07;;;2.87;;
23754;SDS011;12057;52.042;6.830;2022-10-15T22:27:53;10.27;;;2.80;;
23754;SDS011;12057;52.042;6.830;2022-10-15T22:32:54;17.97;;;2.60;;
23754;SDS011;12057;52.042;6.830;2022-10-15T22:37:55;10.10;;;2.73;;
23754;SDS011;12057;52.042;6.830;2022-10-15T22:42:57;13.45;;;3.35;;
23754;SDS011;12057;52.042;6.830;2022-10-15T22:47:57;12.77;;;2.70;;
23754;SDS011;12057;52.042;6.830;2022-10-15T22:52:58;11.83;;;3.00;;
23754;SDS011;12057;52.042;6.830;2022-10-15T22:57:59;18.20;;;2.83;;
23754;SDS011;12057;52.042;6.830;2022-10-15T23:02:59;10.40;;;2.77;;
23754;SDS011;12057;52.042;6.830;2022-10-15T23:08:00;18.07;;;2.53;;
23754;SDS011;12057;52.042;6.830;2022-10-15T23:13:01;8.83;;;3.17;;
23754;SDS011;12057;52.042;6.830;2022-10-15T23:18:01;17.87;;;3.30;;
23754;SDS011;12057;52.042;6.830;2022-10-15T23:23:02;12.93;;;3.37;;
23754;SDS011;12057;52.042;6.830;2022-10-15T23:28:04;16.48;;;2.40;;
23754;SDS011;12057;52.042;6.830;2022-10-15T23:33:05;6.80;;;2.57;;
23754;SDS011;12057;52.042;6.830;2022-10-15T23:38:05;17.47;;;3.27;;
23754;SDS011;12057;52.042;6.830;2022-10-15T23:43:06;6.43;;;2.53;;
23754;SDS011;12057;52.042;6.830;2022-10-15T23:48:07;12.00;;;3.07;;
23754;SDS011;12057;52.042;6.830;2022-10-15T23:53:07;8.43;;;2.77;;
23754;SDS011;12057;52.042;6.830;2022-10-15T23:58:08;8.47;;;2.30;;
